Time;durP1;ratioP1;P1;durP2;ratioP2;P2;SDS_P1;SDS_P2;PMS_P1;PMS_P2;Temp;Humidity;BMP_temperature;BMP_pressure;BME280_temperature;BME280_humidity;BME280_pressure;Samples;Min_cycle;Max_cycle;Signal;HPM_P1;HPM_P2
2022/08/08 00:02:18;;;;;;;2.50;1.00;;;;;;;;;;5031686;28;20206;-31
2022/08/08 00:04:47;;;;;;;1.70;0.87;;;;;;;;;;5047411;28;20204;-29
2022/08/08 00:07:19;;;;;;;2.73;0.97;;;;;;;;;;5039560;28;20225;-33
2022/08/08 00:09:53;;;;;;;1.00;1.00;;;;;;;;;;5048952;28;20213;-33
2022/08/08 00:12:21;;;;;;;1.33;1.07;;;;;;;;;;5046063;28;20683;-31
2022/08/08 00:14:51;;;;;;;1.17;1.00;;;;;;;;;;5051740;28;20234;-30
2022/08/08 00:17:20;;;;;;;0.80;0.80;;;;;;;;;;5034204;28;20233;-32
2022/08/08 00:19:50;;;;;;;3.47;1.20;;;;;;;;;;5047406;28;20212;-29
2022/08/08 00:22:21;;;;;;;2.00;0.80;;;;;;;;;;5037930;28;20217;-33
2022/08/08 00:24:50;;;;;;;2.50;0.97;;;;;;;;;;5048913;28;20198;-29
2022/08/08 00:27:19;;;;;;;0.77;0.77;;;;;;;;;;5051036;28;20229;-31
2022/08/08 00:29:48;;;;;;;1.00;1.00;;;;;;;;;;5048121;28;20206;-30
2022/08/08 00:32:17;;;;;;;0.80;0.80;;;;;;;;;;5042499;28;20201;-30
2022/08/08 00:35:13;;;;;;;2.50;1.10;;;;;;;;;;5050683;28;20228;-33
2022/08/08 00:37:44;;;;;;;1.07;1.00;;;;;;;;;;5031755;28;20248;-30
2022/08/08 00:40:26;;;;;;;1.07;1.00;;;;;;;;;;5048507;28;20212;-31
2022/08/08 00:43:03;;;;;;;1.00;0.90;;;;;;;;;;5008990;28;20226;-31
2022/08/08 00:45:45;;;;;;;1.03;0.90;;;;;;;;;;5036462;28;20208;-29
2022/08/08 00:48:24;;;;;;;1.17;0.90;;;;;;;;;;5049414;28;20229;-31
2022/08/08 00:50:59;;;;;;;0.90;0.90;;;;;;;;;;5047241;28;20461;-31
2022/08/08 00:53:37;;;;;;;0.80;0.80;;;;;;;;;;5047257;28;20209;-28
2022/08/08 00:56:19;;;;;;;1.57;1.17;;;;;;;;;;5050666;28;20205;-31
2022/08/08 00:59:13;;;;;;;1.27;1.00;;;;;;;;;;5050761;28;20206;-31
2022/08/08 01:01:43;;;;;;;1.03;1.00;;;;;;;;;;5038097;28;20214;-31
2022/08/08 01:04:27;;;;;;;1.33;0.90;;;;;;;;;;5051272;28;20209;-29
2022/08/08 01:07:08;;;;;;;1.07;1.03;;;;;;;;;;5039735;28;20230;-29
2022/08/08 01:10:03;;;;;;;0.90;0.90;;;;;;;;;;5047035;28;20467;-32
2022/08/08 01:12:49;;;;;;;1.00;1.00;;;;;;;;;;5050129;28;20205;-29
2022/08/08 01:15:41;;;;;;;1.43;1.00;;;;;;;;;;5048532;28;20582;-30
2022/08/08 01:18:31;;;;;;;0.93;0.90;;;;;;;;;;5043329;28;20240;-31
2022/08/08 01:21:13;;;;;;;2.50;1.00;;;;;;;;;;5046938;28;20255;-30
2022/08/08 01:23:57;;;;;;;1.57;1.00;;;;;;;;;;5041246;28;20209;-31
2022/08/08 01:26:39;;;;;;;1.77;1.00;;;;;;;;;;5050027;28;20232;-32
2022/08/08 01:29:27;;;;;;;1.03;1.03;;;;;;;;;;5050552;28;20212;-30
2022/08/08 01:32:13;;;;;;;0.97;0.97;;;;;;;;;;5042148;28;20224;-33
2022/08/08 01:35:00;;;;;;;0.90;0.90;;;;;;;;;;5050114;28;20231;-29
2022/08/08 01:37:45;;;;;;;1.00;0.80;;;;;;;;;;5041896;28;20240;-31
2022/08/08 01:40:18;;;;;;;0.80;0.80;;;;;;;;;;5049148;28;20212;-30
2022/08/08 01:42:48;;;;;;;0.93;0.90;;;;;;;;;;5049788;28;20211;-31
2022/08/08 01:45:25;;;;;;;1.23;0.93;;;;;;;;;;5039324;28;20209;-29
2022/08/08 01:48:00;;;;;;;1.20;1.20;;;;;;;;;;5049883;28;20255;-30
2022/08/08 01:50:35;;;;;;;1.33;1.23;;;;;;;;;;5043157;28;20204;-32
2022/08/08 01:53:06;;;;;;;0.90;0.90;;;;;;;;;;5044741;28;20211;-30
2022/08/08 01:55:39;;;;;;;1.03;0.97;;;;;;;;;;5049196;28;20226;-31
2022/08/08 01:58:14;;;;;;;0.80;0.80;;;;;;;;;;5049099;28;20268;-33
2022/08/08 02:00:47;;;;;;;1.90;1.20;;;;;;;;;;5042029;28;20293;-32
2022/08/08 02:03:24;;;;;;;0.97;0.97;;;;;;;;;;5033628;28;20221;-30
2022/08/08 02:05:58;;;;;;;1.60;1.03;;;;;;;;;;5044409;28;20212;-29
2022/08/08 02:08:29;;;;;;;0.80;0.80;;;;;;;;;;5041172;28;20236;-31
2022/08/08 02:11:01;;;;;;;0.90;0.90;;;;;;;;;;5049227;28;20206;-32
2022/08/08 02:13:32;;;;;;;1.00;1.00;;;;;;;;;;5049223;28;20208;-30
2022/08/08 02:16:02;;;;;;;0.87;0.87;;;;;;;;;;5039273;28;20229;-29
2022/08/08 02:18:35;;;;;;;0.90;0.90;;;;;;;;;;5048108;28;20233;-29
2022/08/08 02:23:56;;;;;;;3.13;1.00;;;;;;;;;;5044812;28;20288;-29
2022/08/08 02:26:27;;;;;;;0.83;0.83;;;;;;;;;;5049109;28;20239;-30
2022/08/08 02:28:59;;;;;;;0.97;0.93;;;;;;;;;;5044863;28;20311;-31
2022/08/08 02:31:41;;;;;;;0.97;0.80;;;;;;;;;;5046163;28;20217;-31
2022/08/08 02:34:11;;;;;;;1.87;1.00;;;;;;;;;;5046404;28;20209;-30
2022/08/08 02:36:45;;;;;;;1.00;1.00;;;;;;;;;;5039869;28;20229;-33
2022/08/08 02:39:26;;;;;;;1.90;1.03;;;;;;;;;;5046253;28;20212;-30
2022/08/08 02:42:11;;;;;;;5.40;1.00;;;;;;;;;;5049676;28;20213;-33
2022/08/08 02:44:47;;;;;;;1.93;0.90;;;;;;;;;;5044354;28;20205;-30
2022/08/08 02:47:45;;;;;;;0.93;0.93;;;;;;;;;;5044712;28;20243;-31
2022/08/08 02:50:28;;;;;;;1.00;1.00;;;;;;;;;;5048724;28;20208;-28
2022/08/08 02:53:03;;;;;;;2.57;0.93;;;;;;;;;;5038477;28;20213;-32
2022/08/08 02:55:47;;;;;;;1.10;1.00;;;;;;;;;;5048893;28;20231;-31
2022/08/08 02:58:30;;;;;;;2.13;1.40;;;;;;;;;;5049165;28;20228;-30
2022/08/08 03:01:15;;;;;;;1.40;1.10;;;;;;;;;;5042649;28;20220;-31
2022/08/08 03:04:01;;;;;;;1.03;1.03;;;;;;;;;;5030150;28;20272;-31
2022/08/08 03:06:43;;;;;;;1.33;1.00;;;;;;;;;;5033880;28;20218;-29
2022/08/08 03:09:28;;;;;;;1.13;1.03;;;;;;;;;;5039757;28;20222;-30
2022/08/08 03:12:10;;;;;;;0.80;0.80;;;;;;;;;;5049255;28;20205;-29
2022/08/08 03:14:50;;;;;;;1.00;0.90;;;;;;;;;;5045651;28;20228;-28
2022/08/08 03:17:20;;;;;;;2.20;1.10;;;;;;;;;;5045069;28;20306;-31
2022/08/08 03:20:04;;;;;;;1.00;1.00;;;;;;;;;;5049507;28;20205;-33
2022/08/08 03:22:31;;;;;;;1.97;1.20;;;;;;;;;;5036795;28;20211;-31
2022/08/08 03:25:00;;;;;;;1.30;1.20;;;;;;;;;;5048079;28;20261;-32
2022/08/08 03:29:59;;;;;;;1.10;1.03;;;;;;;;;;5034063;28;20210;-45
2022/08/08 03:35:12;;;;;;;1.00;1.00;;;;;;;;;;5042320;28;20231;-45
2022/08/08 03:37:39;;;;;;;1.13;1.03;;;;;;;;;;5036601;28;20231;-43
2022/08/08 03:40:08;;;;;;;2.00;0.90;;;;;;;;;;5044793;28;20233;-47
2022/08/08 03:42:37;;;;;;;1.30;1.20;;;;;;;;;;5029588;28;20213;-46
2022/08/08 03:45:12;;;;;;;1.20;1.20;;;;;;;;;;5032499;28;20259;-45
2022/08/08 03:47:40;;;;;;;0.90;0.90;;;;;;;;;;5048255;28;20231;-45
2022/08/08 03:50:15;;;;;;;1.13;1.03;;;;;;;;;;5049028;28;20208;-47
2022/08/08 03:52:42;;;;;;;1.33;1.00;;;;;;;;;;5035379;28;20208;-45
2022/08/08 03:55:11;;;;;;;1.10;1.10;;;;;;;;;;5048144;28;20291;-45
2022/08/08 03:57:39;;;;;;;1.00;0.90;;;;;;;;;;5053204;28;20216;-42
2022/08/08 04:00:10;;;;;;;0.90;0.90;;;;;;;;;;5044533;28;20209;-43
2022/08/08 04:02:37;;;;;;;1.10;1.00;;;;;;;;;;5042005;28;20211;-41
2022/08/08 04:05:05;;;;;;;1.10;1.10;;;;;;;;;;5050735;28;20205;-44
2022/08/08 04:07:36;;;;;;;1.77;1.20;;;;;;;;;;5043620;28;20571;-42
2022/08/08 04:10:03;;;;;;;0.97;0.97;;;;;;;;;;5050061;28;20215;-43
2022/08/08 04:12:32;;;;;;;1.40;1.30;;;;;;;;;;5054877;28;20209;-43
2022/08/08 04:14:59;;;;;;;1.50;0.93;;;;;;;;;;5050215;28;20223;-46
2022/08/08 04:17:26;;;;;;;0.90;0.90;;;;;;;;;;5045108;28;20228;-40
2022/08/08 04:19:55;;;;;;;2.73;1.10;;;;;;;;;;5054642;28;20206;-41
2022/08/08 04:22:25;;;;;;;1.90;1.30;;;;;;;;;;5043686;28;20218;-39
2022/08/08 04:24:52;;;;;;;0.93;0.93;;;;;;;;;;5051968;28;20291;-44
2022/08/08 04:27:19;;;;;;;1.33;1.20;;;;;;;;;;5052835;28;20227;-41
2022/08/08 04:29:47;;;;;;;3.30;1.10;;;;;;;;;;5052518;28;20571;-44
2022/08/08 04:32:15;;;;;;;2.10;1.00;;;;;;;;;;5045527;28;20236;-39
2022/08/08 04:34:42;;;;;;;1.30;1.20;;;;;;;;;;5052978;28;20208;-43
2022/08/08 04:37:09;;;;;;;1.50;1.40;;;;;;;;;;5036402;28;20522;-38
2022/08/08 04:39:36;;;;;;;1.30;1.20;;;;;;;;;;5053364;28;20290;-43
2022/08/08 04:42:03;;;;;;;1.67;1.40;;;;;;;;;;5053157;28;20202;-40
2022/08/08 04:44:34;;;;;;;1.13;1.03;;;;;;;;;;5039268;28;20212;-42
2022/08/08 04:47:02;;;;;;;1.20;1.10;;;;;;;;;;5050276;28;20231;-40
2022/08/08 04:49:30;;;;;;;1.30;1.20;;;;;;;;;;5053283;28;20199;-45
2022/08/08 04:51:57;;;;;;;1.87;1.20;;;;;;;;;;5045588;28;20213;-44
2022/08/08 04:54:24;;;;;;;1.60;1.10;;;;;;;;;;5048184;28;20212;-45
2022/08/08 04:56:51;;;;;;;1.00;1.00;;;;;;;;;;5049849;28;20715;-41
2022/08/08 04:59:18;;;;;;;1.40;1.30;;;;;;;;;;5044052;28;20204;-42
2022/08/08 05:01:45;;;;;;;1.10;1.00;;;;;;;;;;5051348;28;20203;-41
2022/08/08 05:04:14;;;;;;;1.00;0.90;;;;;;;;;;5051107;28;20215;-44
2022/08/08 05:06:41;;;;;;;1.53;1.23;;;;;;;;;;5042338;28;20229;-46
2022/08/08 05:09:08;;;;;;;1.40;1.30;;;;;;;;;;5048200;28;20218;-44
2022/08/08 05:11:35;;;;;;;1.50;1.40;;;;;;;;;;5044544;28;20208;-43
2022/08/08 05:14:02;;;;;;;1.10;1.10;;;;;;;;;;5033797;28;20208;-43
2022/08/08 05:16:29;;;;;;;2.53;1.40;;;;;;;;;;5035728;28;20232;-39
2022/08/08 05:18:56;;;;;;;1.50;1.40;;;;;;;;;;5049993;28;20203;-40
2022/08/08 05:21:25;;;;;;;1.30;1.20;;;;;;;;;;5043862;28;20206;-40
2022/08/08 05:23:53;;;;;;;2.07;1.43;;;;;;;;;;5041923;28;20208;-41
2022/08/08 05:26:22;;;;;;;1.43;1.20;;;;;;;;;;5048714;28;20226;-45
2022/08/08 05:28:50;;;;;;;1.63;1.27;;;;;;;;;;5137076;22;20244;-37
2022/08/08 05:31:17;;;;;;;1.70;1.30;;;;;;;;;;5032463;28;20213;-37
2022/08/08 05:33:47;;;;;;;1.40;1.30;;;;;;;;;;5039354;28;20211;-37
2022/08/08 05:36:16;;;;;;;1.77;1.47;;;;;;;;;;5036788;28;20331;-35
2022/08/08 05:38:47;;;;;;;1.97;1.70;;;;;;;;;;5046476;28;20278;-37
2022/08/08 05:41:16;;;;;;;1.40;1.30;;;;;;;;;;5050899;28;20223;-36
2022/08/08 05:43:46;;;;;;;1.73;1.63;;;;;;;;;;5051307;28;20208;-32
2022/08/08 05:46:14;;;;;;;1.40;1.30;;;;;;;;;;5045372;28;20204;-35
2022/08/08 05:48:41;;;;;;;1.50;1.40;;;;;;;;;;5046401;28;20625;-34
2022/08/08 05:51:08;;;;;;;1.40;1.40;;;;;;;;;;5047900;28;20208;-34
2022/08/08 05:53:35;;;;;;;1.70;1.60;;;;;;;;;;5045053;28;20206;-34
2022/08/08 05:56:04;;;;;;;1.93;1.83;;;;;;;;;;5050492;28;20307;-33
2022/08/08 05:58:33;;;;;;;2.87;1.80;;;;;;;;;;5051286;28;20284;-35
2022/08/08 06:01:01;;;;;;;1.77;1.67;;;;;;;;;;5040262;28;20212;-34
2022/08/08 06:03:29;;;;;;;2.27;1.53;;;;;;;;;;5042634;28;20243;-34
2022/08/08 06:05:57;;;;;;;1.60;1.47;;;;;;;;;;5047664;28;20204;-35
2022/08/08 06:08:25;;;;;;;2.30;1.70;;;;;;;;;;5045914;28;20308;-34
2022/08/08 06:10:53;;;;;;;1.60;1.50;;;;;;;;;;5051084;28;20305;-34
2022/08/08 06:13:22;;;;;;;1.73;1.60;;;;;;;;;;5051021;28;20372;-34
2022/08/08 06:15:50;;;;;;;2.07;1.97;;;;;;;;;;5042350;28;20225;-32
2022/08/08 06:18:18;;;;;;;1.80;1.70;;;;;;;;;;5045562;28;20259;-34
2022/08/08 06:20:46;;;;;;;4.70;1.90;;;;;;;;;;5046241;28;20200;-36
2022/08/08 06:23:13;;;;;;;2.00;1.90;;;;;;;;;;5043915;28;20219;-37
2022/08/08 06:25:41;;;;;;;2.30;1.90;;;;;;;;;;5042583;28;20208;-37
2022/08/08 06:28:13;;;;;;;6.00;2.10;;;;;;;;;;5050342;28;20242;-37
2022/08/08 06:30:43;;;;;;;2.80;1.97;;;;;;;;;;5045424;28;20211;-36
2022/08/08 06:33:11;;;;;;;2.47;2.20;;;;;;;;;;5037429;28;20204;-41
2022/08/08 06:35:41;;;;;;;4.80;2.20;;;;;;;;;;5047814;28;20229;-44
2022/08/08 06:38:08;;;;;;;3.50;1.97;;;;;;;;;;5047499;28;20273;-44
2022/08/08 06:40:37;;;;;;;3.83;2.10;;;;;;;;;;5049357;28;20196;-44
2022/08/08 06:43:06;;;;;;;2.50;2.30;;;;;;;;;;5050421;28;20231;-46
2022/08/08 06:45:35;;;;;;;2.70;2.30;;;;;;;;;;5046007;28;20211;-41
2022/08/08 06:48:04;;;;;;;3.70;2.23;;;;;;;;;;5042263;28;20233;-39
2022/08/08 06:50:32;;;;;;;3.47;2.10;;;;;;;;;;5048740;28;20206;-37
2022/08/08 06:53:01;;;;;;;2.73;2.30;;;;;;;;;;5041393;28;20209;-38
2022/08/08 06:55:31;;;;;;;2.20;2.10;;;;;;;;;;5049797;28;20224;-45
2022/08/08 06:57:59;;;;;;;2.23;2.03;;;;;;;;;;5050660;28;20232;-40
2022/08/08 07:00:26;;;;;;;3.50;2.65;;;;;;;;;;5044743;28;20207;-47
2022/08/08 07:02:54;;;;;;;2.43;2.17;;;;;;;;;;5032756;28;20213;-40
2022/08/08 07:05:25;;;;;;;6.30;2.65;;;;;;;;;;5050225;28;20198;-42
2022/08/08 07:07:58;;;;;;;4.57;2.25;;;;;;;;;;5037731;28;20304;-44
2022/08/08 07:10:27;;;;;;;2.63;1.90;;;;;;;;;;5045662;28;20202;-41
2022/08/08 07:12:55;;;;;;;2.40;2.20;;;;;;;;;;5049915;28;20246;-47
2022/08/08 07:15:29;;;;;;;3.25;2.40;;;;;;;;;;5046279;28;20209;-46
2022/08/08 07:18:01;;;;;;;2.03;1.92;;;;;;;;;;5044210;28;20740;-46
2022/08/08 07:20:31;;;;;;;3.53;2.85;;;;;;;;;;5049934;28;20255;-42
2022/08/08 07:23:02;;;;;;;3.08;2.28;;;;;;;;;;5047247;28;20374;-42
2022/08/08 07:25:31;;;;;;;2.10;2.00;;;;;;;;;;5049882;28;20208;-44
2022/08/08 07:28:01;;;;;;;2.42;1.73;;;;;;;;;;5050190;28;20236;-43
2022/08/08 07:30:28;;;;;;;2.28;2.05;;;;;;;;;;5041653;28;20204;-44
2022/08/08 07:32:56;;;;;;;2.47;2.15;;;;;;;;;;5045763;28;20214;-43
2022/08/08 07:35:25;;;;;;;3.63;1.95;;;;;;;;;;5055034;28;20216;-44
2022/08/08 07:37:54;;;;;;;2.00;1.80;;;;;;;;;;5046560;28;20236;-43
2022/08/08 07:40:22;;;;;;;2.40;2.20;;;;;;;;;;5046320;28;20213;-45
2022/08/08 07:42:50;;;;;;;2.70;1.95;;;;;;;;;;5053946;28;20213;-45
2022/08/08 07:45:17;;;;;;;2.65;2.10;;;;;;;;;;5048467;28;20606;-43
2022/08/08 07:47:45;;;;;;;2.25;1.67;;;;;;;;;;5046825;28;20302;-44
2022/08/08 07:50:14;;;;;;;2.63;2.00;;;;;;;;;;5052029;28;20201;-43
2022/08/08 07:52:43;;;;;;;1.70;1.60;;;;;;;;;;5039699;28;20212;-43
2022/08/08 07:55:17;;;;;;;2.30;2.05;;;;;;;;;;5052155;28;20206;-46
2022/08/08 07:57:48;;;;;;;3.78;1.80;;;;;;;;;;5053334;28;20232;-44
2022/08/08 08:00:16;;;;;;;2.10;1.73;;;;;;;;;;5042514;28;20209;-45
2022/08/08 08:02:44;;;;;;;2.00;1.90;;;;;;;;;;5052838;28;20202;-43
2022/08/08 08:05:17;;;;;;;2.55;1.77;;;;;;;;;;5048794;28;20201;-42
2022/08/08 08:07:48;;;;;;;4.15;2.00;;;;;;;;;;5040876;28;20228;-45
2022/08/08 08:10:18;;;;;;;1.88;1.77;;;;;;;;;;5052777;28;20205;-43
2022/08/08 08:12:51;;;;;;;4.43;2.00;;;;;;;;;;5054817;28;20277;-40
2022/08/08 08:15:19;;;;;;;1.70;1.60;;;;;;;;;;5053222;28;20194;-45
2022/08/08 08:17:58;;;;;;;2.53;1.80;;;;;;;;;;5035829;28;20235;-41
2022/08/08 08:20:27;;;;;;;2.70;1.63;;;;;;;;;;5041896;28;20216;-36
2022/08/08 08:22:56;;;;;;;2.55;2.10;;;;;;;;;;5036364;28;20202;-43
2022/08/08 08:25:26;;;;;;;1.83;1.73;;;;;;;;;;5047434;28;20205;-45
2022/08/08 08:27:53;;;;;;;1.60;1.50;;;;;;;;;;5048792;28;20284;-43
2022/08/08 08:30:20;;;;;;;1.75;1.65;;;;;;;;;;5044438;28;20275;-40
2022/08/08 08:32:47;;;;;;;2.03;1.80;;;;;;;;;;5033796;28;20213;-42
2022/08/08 08:35:14;;;;;;;3.08;1.60;;;;;;;;;;5052789;28;20568;-44
2022/08/08 08:37:42;;;;;;;1.80;1.70;;;;;;;;;;5050671;28;20256;-41
2022/08/08 08:40:10;;;;;;;2.03;1.70;;;;;;;;;;5052519;28;20206;-42
2022/08/08 08:42:39;;;;;;;2.20;2.00;;;;;;;;;;5052566;28;20202;-45
2022/08/08 08:45:07;;;;;;;1.92;1.55;;;;;;;;;;5041123;28;20293;-44
2022/08/08 08:47:37;;;;;;;1.70;1.60;;;;;;;;;;5075376;22;20234;-33
2022/08/08 08:50:04;;;;;;;1.98;1.88;;;;;;;;;;5140075;22;20208;-41
2022/08/08 08:52:35;;;;;;;1.77;1.67;;;;;;;;;;5040518;28;20316;-44
2022/08/08 08:55:03;;;;;;;2.75;1.75;;;;;;;;;;5035545;28;20246;-45
2022/08/08 08:57:35;;;;;;;1.83;1.55;;;;;;;;;;5046345;28;20229;-43
2022/08/08 09:00:05;;;;;;;1.67;1.60;;;;;;;;;;5032411;28;20238;-41
2022/08/08 09:02:34;;;;;;;1.67;1.58;;;;;;;;;;5030445;28;20206;-43
2022/08/08 09:05:07;;;;;;;2.72;1.80;;;;;;;;;;5045549;28;20203;-44
2022/08/08 09:07:36;;;;;;;1.38;1.30;;;;;;;;;;5025833;28;20225;-44
2022/08/08 09:10:04;;;;;;;1.50;1.40;;;;;;;;;;5014503;28;20245;-42
2022/08/08 09:12:33;;;;;;;1.98;1.35;;;;;;;;;;5015077;28;20207;-44
2022/08/08 09:15:01;;;;;;;3.22;1.52;;;;;;;;;;5014317;28;20215;-42
2022/08/08 09:17:30;;;;;;;1.55;1.25;;;;;;;;;;5033540;28;20230;-42
2022/08/08 09:20:00;;;;;;;1.40;1.38;;;;;;;;;;5051033;28;20288;-42
2022/08/08 09:22:30;;;;;;;1.48;1.38;;;;;;;;;;5025675;28;20195;-42
2022/08/08 09:24:57;;;;;;;1.30;1.30;;;;;;;;;;5033489;28;20229;-41
2022/08/08 09:32:39;;;;;;;1.50;1.38;;;;;;;;;;5024838;28;20586;-32
2022/08/08 09:35:08;;;;;;;1.60;1.50;;;;;;;;;;5032911;28;20686;-32
2022/08/08 09:37:43;;;;;;;1.67;1.58;;;;;;;;;;5015312;28;20242;-33
2022/08/08 09:40:11;;;;;;;1.48;1.38;;;;;;;;;;5028839;28;20190;-33
2022/08/08 09:42:39;;;;;;;1.50;1.40;;;;;;;;;;5034077;28;20218;-33
2022/08/08 09:45:07;;;;;;;1.40;1.30;;;;;;;;;;5028579;28;20213;-35
2022/08/08 09:47:36;;;;;;;1.60;1.50;;;;;;;;;;5020639;28;20230;-34
2022/08/08 09:50:06;;;;;;;2.47;1.50;;;;;;;;;;5014694;28;20214;-34
2022/08/08 09:52:34;;;;;;;1.70;1.60;;;;;;;;;;5020628;28;20217;-33
2022/08/08 09:55:01;;;;;;;1.55;1.40;;;;;;;;;;5024078;28;20214;-33
2022/08/08 09:57:32;;;;;;;1.77;1.30;;;;;;;;;;5033413;28;20321;-33
2022/08/08 10:00:00;;;;;;;1.75;1.55;;;;;;;;;;5030211;28;20198;-34
2022/08/08 10:02:33;;;;;;;2.80;1.60;;;;;;;;;;5015684;28;20205;-34
2022/08/08 10:05:03;;;;;;;1.60;1.50;;;;;;;;;;5021066;28;20206;-32
2022/08/08 10:07:32;;;;;;;1.58;1.48;;;;;;;;;;5015234;28;20222;-33
2022/08/08 10:09:59;;;;;;;1.52;1.33;;;;;;;;;;5028791;28;20209;-32
2022/08/08 10:12:33;;;;;;;1.40;1.30;;;;;;;;;;5019551;28;20214;-34
2022/08/08 10:15:01;;;;;;;1.50;1.33;;;;;;;;;;5016358;28;20308;-33
2022/08/08 10:17:28;;;;;;;1.80;1.38;;;;;;;;;;5018254;28;20233;-33
2022/08/08 10:19:57;;;;;;;2.22;1.52;;;;;;;;;;5021352;28;20217;-31
2022/08/08 10:22:25;;;;;;;1.67;1.50;;;;;;;;;;5019080;28;20206;-31
2022/08/08 10:24:55;;;;;;;1.40;1.30;;;;;;;;;;5020367;28;20205;-30
2022/08/08 10:27:25;;;;;;;2.40;1.35;;;;;;;;;;5030278;28;20225;-30
2022/08/08 10:29:54;;;;;;;1.60;1.35;;;;;;;;;;5026277;28;20220;-32
2022/08/08 10:32:34;;;;;;;3.28;1.60;;;;;;;;;;5027623;28;20316;-30
2022/08/08 10:35:02;;;;;;;1.60;1.50;;;;;;;;;;5024805;28;20208;-33
2022/08/08 10:37:33;;;;;;;1.55;1.30;;;;;;;;;;5020784;28;20239;-34
2022/08/08 10:40:02;;;;;;;4.05;1.40;;;;;;;;;;5026377;28;20259;-33
2022/08/08 10:42:33;;;;;;;2.95;1.58;;;;;;;;;;5012438;28;20212;-32
2022/08/08 10:45:01;;;;;;;2.38;1.33;;;;;;;;;;5028433;28;20271;-35
2022/08/08 10:47:28;;;;;;;1.92;1.55;;;;;;;;;;5017542;28;20283;-32
2022/08/08 10:49:56;;;;;;;1.40;1.30;;;;;;;;;;5017172;28;20202;-34
2022/08/08 10:52:24;;;;;;;1.75;1.65;;;;;;;;;;5019916;28;20216;-34
2022/08/08 10:54:54;;;;;;;1.40;1.30;;;;;;;;;;5030007;28;20454;-34
2022/08/08 10:57:23;;;;;;;2.65;1.30;;;;;;;;;;5012000;28;20237;-31
2022/08/08 10:59:54;;;;;;;2.38;1.40;;;;;;;;;;5012998;28;20209;-31
2022/08/08 11:02:25;;;;;;;1.33;1.23;;;;;;;;;;5014784;28;20199;-34
2022/08/08 11:04:52;;;;;;;2.08;1.25;;;;;;;;;;5019972;28;20597;-32
2022/08/08 11:07:29;;;;;;;2.83;1.48;;;;;;;;;;5025359;28;20224;-32
2022/08/08 11:09:56;;;;;;;1.10;1.10;;;;;;;;;;5022724;28;20213;-32
2022/08/08 11:12:25;;;;;;;1.27;1.10;;;;;;;;;;5032037;28;20224;-34
2022/08/08 11:14:53;;;;;;;2.38;1.60;;;;;;;;;;5023482;28;20215;-32
2022/08/08 11:17:23;;;;;;;1.50;1.40;;;;;;;;;;5029649;28;20232;-31
2022/08/08 11:19:51;;;;;;;1.55;1.38;;;;;;;;;;5021933;28;20249;-35
2022/08/08 11:22:20;;;;;;;4.05;1.40;;;;;;;;;;5025239;28;20218;-28
2022/08/08 11:24:47;;;;;;;1.10;1.10;;;;;;;;;;5031528;28;20211;-32
2022/08/08 11:27:16;;;;;;;1.08;1.08;;;;;;;;;;5020949;28;20221;-33
2022/08/08 11:29:45;;;;;;;1.77;1.35;;;;;;;;;;5025556;28;20205;-35
2022/08/08 11:32:13;;;;;;;2.25;1.30;;;;;;;;;;5026516;28;20223;-31
2022/08/08 11:34:43;;;;;;;1.02;1.02;;;;;;;;;;5030969;28;20198;-33
2022/08/08 11:37:10;;;;;;;4.60;1.33;;;;;;;;;;5028967;28;20233;-36
2022/08/08 11:39:38;;;;;;;1.13;1.13;;;;;;;;;;5026384;28;20210;-32
2022/08/08 11:42:05;;;;;;;1.08;1.02;;;;;;;;;;5035177;28;20204;-32
2022/08/08 11:44:32;;;;;;;5.70;1.20;;;;;;;;;;5035694;28;20208;-33
2022/08/08 11:47:01;;;;;;;1.17;1.17;;;;;;;;;;5021811;28;20226;-31
2022/08/08 11:49:28;;;;;;;1.17;1.08;;;;;;;;;;5025189;28;20211;-34
2022/08/08 11:51:56;;;;;;;1.55;1.10;;;;;;;;;;5015221;28;20215;-34
2022/08/08 11:54:33;;;;;;;1.00;1.00;;;;;;;;;;5031019;28;20216;-32
2022/08/08 11:57:10;;;;;;;3.58;1.13;;;;;;;;;;5016752;28;20303;-35
2022/08/08 11:59:44;;;;;;;1.40;1.20;;;;;;;;;;5025336;28;20199;-33
2022/08/08 12:02:13;;;;;;;1.15;1.05;;;;;;;;;;5029704;28;20206;-31
2022/08/08 12:04:40;;;;;;;1.90;0.95;;;;;;;;;;5030957;28;20202;-34
2022/08/08 12:07:07;;;;;;;1.20;1.10;;;;;;;;;;5026617;28;20318;-35
2022/08/08 12:09:35;;;;;;;0.88;0.80;;;;;;;;;;5025867;28;20220;-31
2022/08/08 12:12:02;;;;;;;1.02;1.02;;;;;;;;;;5028463;28;20583;-31
2022/08/08 12:14:29;;;;;;;3.42;0.90;;;;;;;;;;5025331;28;20211;-34
2022/08/08 12:16:57;;;;;;;1.00;1.00;;;;;;;;;;5023639;28;20225;-32
2022/08/08 12:19:26;;;;;;;0.98;0.90;;;;;;;;;;5024987;28;20232;-34
2022/08/08 12:22:05;;;;;;;0.73;0.73;;;;;;;;;;5015793;28;20217;-33
2022/08/08 12:24:43;;;;;;;2.60;1.10;;;;;;;;;;5022573;28;20207;-31
2022/08/08 12:27:17;;;;;;;2.08;1.00;;;;;;;;;;5026865;28;20225;-31
2022/08/08 12:29:54;;;;;;;1.63;1.30;;;;;;;;;;5022474;28;20204;-32
2022/08/08 12:32:21;;;;;;;2.80;1.60;;;;;;;;;;5028443;28;20228;-34
2022/08/08 12:35:01;;;;;;;1.58;1.48;;;;;;;;;;5030813;28;20211;-33
2022/08/08 12:37:30;;;;;;;1.50;0.88;;;;;;;;;;5024807;28;20228;-32
2022/08/08 12:40:00;;;;;;;1.75;0.93;;;;;;;;;;5024514;28;20218;-34
2022/08/08 12:42:27;;;;;;;1.00;1.00;;;;;;;;;;5023849;28;20216;-35
2022/08/08 12:45:02;;;;;;;2.00;0.95;;;;;;;;;;5021573;28;20208;-34
2022/08/08 12:47:29;;;;;;;1.00;0.90;;;;;;;;;;5018599;28;20231;-31
2022/08/08 12:49:57;;;;;;;0.77;0.77;;;;;;;;;;5019845;28;20214;-32
2022/08/08 12:52:25;;;;;;;1.23;1.00;;;;;;;;;;5020794;28;20206;-32
2022/08/08 12:55:02;;;;;;;5.00;0.73;;;;;;;;;;5027698;28;20213;-34
2022/08/08 12:57:29;;;;;;;1.88;0.98;;;;;;;;;;5029675;28;20234;-34
2022/08/08 12:59:57;;;;;;;2.92;0.80;;;;;;;;;;5027920;28;20217;-32
2022/08/08 13:02:26;;;;;;;3.15;0.93;;;;;;;;;;5014406;28;20241;-31
2022/08/08 13:04:54;;;;;;;0.90;0.90;;;;;;;;;;5022336;28;20576;-33
2022/08/08 13:07:33;;;;;;;0.77;0.77;;;;;;;;;;5016150;28;20230;-33
2022/08/08 13:10:00;;;;;;;1.23;1.13;;;;;;;;;;5023213;28;20406;-30
2022/08/08 13:12:28;;;;;;;1.15;1.05;;;;;;;;;;5028724;28;20261;-32
2022/08/08 13:14:56;;;;;;;1.70;1.60;;;;;;;;;;5023645;28;20214;-30
2022/08/08 13:17:25;;;;;;;2.50;0.90;;;;;;;;;;5019002;28;20233;-33
2022/08/08 13:19:53;;;;;;;0.80;0.80;;;;;;;;;;5025426;28;20205;-30
2022/08/08 13:22:22;;;;;;;0.90;0.90;;;;;;;;;;5020860;28;20218;-33
2022/08/08 13:24:50;;;;;;;1.30;0.70;;;;;;;;;;5027163;28;20206;-33
2022/08/08 13:27:18;;;;;;;1.02;0.93;;;;;;;;;;5025111;28;20271;-34
2022/08/08 13:29:49;;;;;;;1.10;1.00;;;;;;;;;;5027077;28;20234;-33
2022/08/08 13:32:16;;;;;;;0.75;0.75;;;;;;;;;;5019848;28;20229;-34
2022/08/08 13:34:43;;;;;;;1.45;0.90;;;;;;;;;;5030058;28;20208;-34
2022/08/08 13:37:11;;;;;;;0.90;0.90;;;;;;;;;;5023427;28;20304;-34
2022/08/08 13:39:40;;;;;;;0.80;0.80;;;;;;;;;;5022324;28;20322;-35
2022/08/08 13:42:08;;;;;;;0.80;0.80;;;;;;;;;;5026241;28;20221;-31
2022/08/08 13:44:35;;;;;;;0.85;0.85;;;;;;;;;;5029326;28;20212;-30
2022/08/08 13:47:04;;;;;;;0.82;0.80;;;;;;;;;;5018963;28;20704;-34
2022/08/08 13:49:32;;;;;;;0.95;0.95;;;;;;;;;;5031547;28;20207;-35
2022/08/08 13:52:00;;;;;;;6.10;1.45;;;;;;;;;;5017904;28;20224;-32
2022/08/08 13:54:28;;;;;;;1.38;1.20;;;;;;;;;;5024616;28;20672;-31
2022/08/08 13:57:04;;;;;;;1.58;1.40;;;;;;;;;;5013522;28;20219;-34
2022/08/08 13:59:32;;;;;;;0.90;0.90;;;;;;;;;;5012141;28;20238;-32
2022/08/08 14:02:00;;;;;;;0.98;0.98;;;;;;;;;;5018093;28;20203;-34
2022/08/08 14:04:27;;;;;;;1.10;0.93;;;;;;;;;;5017679;28;20206;-33
2022/08/08 14:06:59;;;;;;;2.88;1.50;;;;;;;;;;5015497;28;20237;-33
2022/08/08 14:09:33;;;;;;;0.98;0.98;;;;;;;;;;5021306;28;20209;-31
2022/08/08 14:12:00;;;;;;;1.15;1.05;;;;;;;;;;5014668;28;20585;-34
2022/08/08 14:14:41;;;;;;;0.90;0.90;;;;;;;;;;5026183;28;20222;-35
2022/08/08 14:17:09;;;;;;;0.93;0.93;;;;;;;;;;5010799;28;20222;-32
2022/08/08 14:19:38;;;;;;;1.48;1.15;;;;;;;;;;5011948;28;20249;-33
2022/08/08 14:22:22;;;;;;;0.90;0.90;;;;;;;;;;5014249;28;20203;-30
2022/08/08 14:24:51;;;;;;;1.40;0.98;;;;;;;;;;5015388;28;20560;-35
2022/08/08 14:27:19;;;;;;;1.40;1.20;;;;;;;;;;5013376;28;20233;-34
2022/08/08 14:30:05;;;;;;;0.90;0.90;;;;;;;;;;5025359;28;20203;-33
2022/08/08 14:32:33;;;;;;;1.27;0.95;;;;;;;;;;5012411;28;20211;-34
2022/08/08 14:35:03;;;;;;;2.88;0.90;;;;;;;;;;5013084;28;20238;-31
2022/08/08 14:37:30;;;;;;;1.00;1.00;;;;;;;;;;5012597;28;20223;-33
2022/08/08 14:39:58;;;;;;;0.90;0.90;;;;;;;;;;5013737;28;20233;-32
2022/08/08 14:42:29;;;;;;;2.28;1.10;;;;;;;;;;5029994;28;20207;-32
2022/08/08 14:44:57;;;;;;;1.48;0.90;;;;;;;;;;5023198;28;20210;-35
2022/08/08 14:47:26;;;;;;;1.20;1.10;;;;;;;;;;5020125;28;20242;-36
2022/08/08 14:50:10;;;;;;;0.90;0.90;;;;;;;;;;5025876;28;20568;-33
2022/08/08 14:52:44;;;;;;;0.93;0.90;;;;;;;;;;5020280;28;20214;-32
2022/08/08 14:55:12;;;;;;;1.05;0.98;;;;;;;;;;5016459;28;20202;-35
2022/08/08 14:57:40;;;;;;;0.98;0.98;;;;;;;;;;5024299;28;20230;-37
2022/08/08 15:00:15;;;;;;;1.55;0.93;;;;;;;;;;5020094;28;20226;-37
2022/08/08 15:02:46;;;;;;;1.00;0.90;;;;;;;;;;5010671;28;20206;-34
2022/08/08 15:05:13;;;;;;;0.80;0.80;;;;;;;;;;5019476;28;20217;-35
2022/08/08 15:07:40;;;;;;;1.60;1.23;;;;;;;;;;5027070;28;20256;-35
2022/08/08 15:10:07;;;;;;;0.88;0.82;;;;;;;;;;5031000;28;20201;-37
2022/08/08 15:12:34;;;;;;;0.70;0.70;;;;;;;;;;5031605;28;20206;-35
2022/08/08 15:15:02;;;;;;;1.20;1.00;;;;;;;;;;5022816;28;20214;-36
2022/08/08 15:17:29;;;;;;;1.00;0.90;;;;;;;;;;5034663;28;20236;-33
2022/08/08 15:19:58;;;;;;;2.92;1.00;;;;;;;;;;5029501;28;20310;-34